Time;durP1;ratioP1;P1;durP2;ratioP2;P2;SDS_P1;SDS_P2;PMS_P1;PMS_P2;Temp;Humidity;BMP_temperature;BMP_pressure;BME280_temperature;BME280_humidity;BME280_pressure;Samples;Min_cycle;Max_cycle;Signal;HPM_P1;HPM_P2
2021/09/24 00:00:40;;;;;;;23.10;17.27;;;;;;;;;;6219507;28;20050;-71
2021/09/24 00:03:41;;;;;;;23.63;15.98;;;;;;;;;;6247569;28;20457;-72
2021/09/24 00:06:44;;;;;;;21.48;17.42;;;;;;;;;;6233581;28;20064;-72
2021/09/24 00:09:45;;;;;;;23.25;17.52;;;;;;;;;;6251631;28;20132;-71
2021/09/24 00:12:48;;;;;;;24.70;17.33;;;;;;;;;;6239259;28;20521;-71
2021/09/24 00:15:51;;;;;;;20.73;16.83;;;;;;;;;;6220263;28;20104;-72
2021/09/24 00:18:52;;;;;;;25.00;18.00;;;;;;;;;;6217117;28;20077;-71
2021/09/24 00:21:54;;;;;;;23.42;18.48;;;;;;;;;;6229110;28;20097;-72
2021/09/24 00:24:55;;;;;;;24.30;18.08;;;;;;;;;;6226847;28;20042;-71
2021/09/24 00:27:59;;;;;;;24.52;18.02;;;;;;;;;;6211268;28;20046;-71
2021/09/24 00:31:00;;;;;;;22.90;18.77;;;;;;;;;;6221145;28;20040;-72
2021/09/24 00:34:02;;;;;;;24.30;18.40;;;;;;;;;;6236632;28;20037;-70
2021/09/24 00:37:04;;;;;;;25.20;19.58;;;;;;;;;;6235876;28;20158;-70
2021/09/24 00:40:07;;;;;;;24.25;19.15;;;;;;;;;;6244136;28;20060;-71
2021/09/24 00:43:10;;;;;;;29.52;18.73;;;;;;;;;;6236405;28;20474;-71
2021/09/24 00:46:12;;;;;;;26.17;18.70;;;;;;;;;;6234505;28;20144;-71
2021/09/24 00:49:13;;;;;;;24.45;18.77;;;;;;;;;;6243083;28;20602;-70
2021/09/24 00:52:15;;;;;;;23.15;18.08;;;;;;;;;;6243544;28;20124;-72
2021/09/24 00:55:16;;;;;;;26.60;20.00;;;;;;;;;;6218923;28;20137;-72
2021/09/24 00:58:19;;;;;;;33.83;18.55;;;;;;;;;;6217979;28;20065;-70
2021/09/24 01:01:21;;;;;;;24.47;18.47;;;;;;;;;;6227426;28;20136;-71
2021/09/24 01:04:23;;;;;;;24.92;18.55;;;;;;;;;;6236408;28;20049;-71
2021/09/24 01:07:25;;;;;;;25.90;17.92;;;;;;;;;;6237774;28;20146;-75
2021/09/24 01:10:26;;;;;;;26.63;19.25;;;;;;;;;;6233327;28;20098;-71
2021/09/24 01:13:29;;;;;;;23.55;18.60;;;;;;;;;;6239024;28;20143;-70
2021/09/24 01:16:31;;;;;;;24.10;16.97;;;;;;;;;;6231848;28;20176;-71
2021/09/24 01:19:32;;;;;;;22.65;17.70;;;;;;;;;;6234167;28;20141;-71
2021/09/24 01:22:36;;;;;;;21.13;16.48;;;;;;;;;;6224165;28;20057;-71
2021/09/24 01:25:38;;;;;;;;;;;;;;;;;;6237768;28;20156;-70
2021/09/24 01:28:39;;;;;;;22.85;16.25;;;;;;;;;;6238424;28;19999;-71
2021/09/24 01:31:42;;;;;;;21.55;16.70;;;;;;;;;;6204930;28;20062;-71
2021/09/24 01:34:43;;;;;;;24.58;16.33;;;;;;;;;;6213091;28;20052;-71
2021/09/24 01:37:46;;;;;;;22.67;16.98;;;;;;;;;;6230931;28;20519;-70
2021/09/24 01:40:48;;;;;;;23.73;16.70;;;;;;;;;;6235215;28;20046;-70
2021/09/24 01:43:51;;;;;;;21.23;16.92;;;;;;;;;;6243310;28;20053;-71
2021/09/24 01:46:54;;;;;;;24.77;17.80;;;;;;;;;;6230230;28;20046;-70
2021/09/24 01:49:56;;;;;;;24.75;18.02;;;;;;;;;;6240259;28;20497;-71
2021/09/24 01:52:59;;;;;;;25.95;17.02;;;;;;;;;;6233825;28;20386;-71
2021/09/24 01:56:00;;;;;;;26.50;17.35;;;;;;;;;;6237043;28;20401;-70
2021/09/24 01:59:02;;;;;;;22.05;16.25;;;;;;;;;;6242214;28;20520;-71
2021/09/24 02:02:04;;;;;;;23.58;16.77;;;;;;;;;;6233821;28;20119;-71
2021/09/24 02:05:07;;;;;;;24.83;17.23;;;;;;;;;;6243887;28;20037;-71
2021/09/24 02:08:10;;;;;;;23.80;17.75;;;;;;;;;;6235334;28;20075;-70
2021/09/24 02:11:12;;;;;;;21.67;16.23;;;;;;;;;;6231344;28;20194;-71
2021/09/24 02:14:14;;;;;;;22.58;17.50;;;;;;;;;;6242920;28;20557;-71
2021/09/24 02:17:15;;;;;;;21.77;17.20;;;;;;;;;;6234087;28;20120;-71
2021/09/24 02:20:17;;;;;;;25.38;17.52;;;;;;;;;;6234262;28;20583;-71
2021/09/24 02:23:20;;;;;;;24.42;17.88;;;;;;;;;;6221270;28;20558;-70
2021/09/24 02:26:21;;;;;;;24.02;17.77;;;;;;;;;;6230778;28;20474;-71
2021/09/24 02:29:23;;;;;;;23.77;18.02;;;;;;;;;;6238715;28;20544;-71
2021/09/24 02:32:25;;;;;;;25.00;17.05;;;;;;;;;;6206769;28;20549;-71
2021/09/24 02:35:26;;;;;;;25.98;17.45;;;;;;;;;;6213285;28;20685;-71
2021/09/24 02:38:29;;;;;;;22.20;17.88;;;;;;;;;;6232462;28;20128;-71
2021/09/24 02:41:31;;;;;;;26.97;18.17;;;;;;;;;;6238254;28;20583;-71
2021/09/24 02:44:33;;;;;;;21.38;17.60;;;;;;;;;;6241244;28;20140;-71
2021/09/24 02:47:35;;;;;;;24.50;18.17;;;;;;;;;;6233549;28;20531;-70
2021/09/24 02:50:37;;;;;;;23.17;17.88;;;;;;;;;;6232694;28;20127;-71
2021/09/24 02:53:40;;;;;;;21.80;17.80;;;;;;;;;;6242495;28;20053;-71
2021/09/24 02:56:41;;;;;;;23.77;17.97;;;;;;;;;;6219322;28;20528;-71
2021/09/24 02:59:43;;;;;;;23.33;17.60;;;;;;;;;;6241089;28;20142;-70
2021/09/24 03:02:44;;;;;;;23.15;16.90;;;;;;;;;;6229693;28;20041;-70
2021/09/24 03:05:46;;;;;;;24.00;17.25;;;;;;;;;;6232658;28;23121;-71
2021/09/24 03:08:49;;;;;;;24.50;17.30;;;;;;;;;;6241166;28;20584;-70
2021/09/24 03:11:51;;;;;;;22.93;17.43;;;;;;;;;;6234910;28;20064;-70
2021/09/24 03:14:52;;;;;;;24.38;17.42;;;;;;;;;;6237120;28;20132;-70
2021/09/24 03:17:54;;;;;;;24.95;17.42;;;;;;;;;;6233192;28;20099;-71
2021/09/24 03:20:55;;;;;;;23.50;17.23;;;;;;;;;;6232688;28;20400;-71
2021/09/24 03:23:58;;;;;;;29.35;18.83;;;;;;;;;;6237575;28;20425;-70
2021/09/24 03:27:00;;;;;;;23.63;17.90;;;;;;;;;;6234519;28;20124;-71
2021/09/24 03:30:02;;;;;;;27.35;17.50;;;;;;;;;;6242985;28;20045;-70
2021/09/24 03:33:04;;;;;;;26.38;18.30;;;;;;;;;;6225065;28;20451;-71
2021/09/24 03:36:06;;;;;;;26.85;17.77;;;;;;;;;;6230479;28;20092;-71
2021/09/24 03:39:13;;;;;;;25.60;18.45;;;;;;;;;;6237105;28;20064;-71
2021/09/24 03:42:14;;;;;;;24.30;18.38;;;;;;;;;;6246741;28;20478;-70
2021/09/24 03:45:16;;;;;;;26.83;19.10;;;;;;;;;;6245167;28;20459;-71
2021/09/24 03:48:18;;;;;;;23.70;17.67;;;;;;;;;;6237156;28;20073;-70
2021/09/24 03:51:20;;;;;;;25.55;17.40;;;;;;;;;;6246120;28;20108;-71
2021/09/24 03:54:23;;;;;;;26.75;18.70;;;;;;;;;;6250485;28;20128;-71
2021/09/24 03:57:25;;;;;;;26.23;18.70;;;;;;;;;;6249401;28;20565;-70
2021/09/24 04:00:26;;;;;;;26.60;19.25;;;;;;;;;;6240603;28;20409;-71
2021/09/24 04:03:28;;;;;;;24.50;18.42;;;;;;;;;;6232915;28;20412;-71
2021/09/24 04:06:30;;;;;;;27.10;20.02;;;;;;;;;;6222072;28;20632;-70
2021/09/24 04:09:33;;;;;;;25.55;18.90;;;;;;;;;;6242361;28;20056;-70
2021/09/24 04:12:35;;;;;;;27.27;19.00;;;;;;;;;;6234266;28;20046;-70
2021/09/24 04:15:37;;;;;;;24.30;18.48;;;;;;;;;;6227505;28;20058;-71
2021/09/24 04:18:39;;;;;;;31.00;21.23;;;;;;;;;;6215949;28;20142;-71
2021/09/24 04:21:40;;;;;;;28.80;20.48;;;;;;;;;;6225370;28;20183;-71
2021/09/24 04:24:43;;;;;;;28.70;20.08;;;;;;;;;;6205875;28;20057;-70
2021/09/24 04:27:45;;;;;;;25.97;19.63;;;;;;;;;;6247402;28;20492;-70
2021/09/24 04:30:47;;;;;;;30.52;19.98;;;;;;;;;;6230019;28;21321;-71
2021/09/24 04:33:48;;;;;;;23.83;19.02;;;;;;;;;;6233923;28;20049;-71
2021/09/24 04:36:50;;;;;;;26.73;18.85;;;;;;;;;;6238525;28;20525;-71
2021/09/24 04:39:53;;;;;;;26.85;18.48;;;;;;;;;;6237275;28;20405;-71
2021/09/24 04:42:54;;;;;;;24.98;19.42;;;;;;;;;;6233651;28;20172;-71
2021/09/24 04:45:56;;;;;;;24.65;19.50;;;;;;;;;;6235016;28;20041;-71
2021/09/24 04:48:58;;;;;;;23.63;18.10;;;;;;;;;;6241157;28;20382;-70
2021/09/24 04:52:00;;;;;;;26.58;19.40;;;;;;;;;;6236824;28;21295;-71
2021/09/24 04:55:03;;;;;;;23.23;18.23;;;;;;;;;;6243311;28;20048;-70
2021/09/24 04:58:04;;;;;;;24.52;18.95;;;;;;;;;;6236285;28;20134;-70
2021/09/24 05:01:06;;;;;;;24.67;18.83;;;;;;;;;;6234630;28;20045;-71
2021/09/24 05:04:08;;;;;;;23.02;19.02;;;;;;;;;;6239124;28;20037;-71
2021/09/24 05:07:09;;;;;;;25.63;19.65;;;;;;;;;;6237032;28;20144;-70
2021/09/24 05:10:12;;;;;;;24.00;18.98;;;;;;;;;;6238632;28;20120;-71
2021/09/24 05:13:14;;;;;;;30.37;21.27;;;;;;;;;;6238202;28;20095;-71
2021/09/24 05:16:16;;;;;;;28.42;21.02;;;;;;;;;;6235398;28;20096;-70
2021/09/24 05:19:18;;;;;;;27.55;20.23;;;;;;;;;;6227612;28;20060;-70
2021/09/24 05:22:19;;;;;;;25.65;19.77;;;;;;;;;;6238281;28;20111;-71
2021/09/24 05:25:22;;;;;;;28.55;20.77;;;;;;;;;;6243536;28;20444;-71
2021/09/24 05:28:24;;;;;;;25.80;20.92;;;;;;;;;;6244600;28;20058;-72
2021/09/24 05:31:25;;;;;;;28.23;21.23;;;;;;;;;;6213168;28;20056;-73
2021/09/24 05:34:27;;;;;;;29.45;21.40;;;;;;;;;;6218657;28;20179;-72
2021/09/24 05:37:30;;;;;;;27.95;20.65;;;;;;;;;;6216770;28;20066;-71
2021/09/24 05:40:33;;;;;;;26.15;20.70;;;;;;;;;;6235564;28;20060;-72
2021/09/24 05:43:35;;;;;;;28.10;20.27;;;;;;;;;;6243198;28;20133;-71
2021/09/24 05:46:37;;;;;;;24.98;19.13;;;;;;;;;;6230619;28;20557;-72
2021/09/24 05:49:38;;;;;;;24.83;19.73;;;;;;;;;;6248220;28;20455;-72
2021/09/24 05:52:43;;;;;;;26.88;19.92;;;;;;;;;;6232089;28;20127;-72
2021/09/24 05:55:46;;;;;;;23.45;18.83;;;;;;;;;;6232504;28;20053;-72
2021/09/24 05:58:47;;;;;;;29.03;19.20;;;;;;;;;;6241746;28;20073;-72
2021/09/24 06:01:49;;;;;;;25.92;18.38;;;;;;;;;;6231147;28;20083;-72
2021/09/24 06:04:51;;;;;;;26.77;19.42;;;;;;;;;;6247344;28;20056;-72
2021/09/24 06:07:53;;;;;;;28.42;19.98;;;;;;;;;;6231639;28;20076;-72
2021/09/24 06:10:56;;;;;;;24.90;18.85;;;;;;;;;;6234378;28;20278;-72
2021/09/24 06:13:57;;;;;;;25.40;19.97;;;;;;;;;;6227268;28;20049;-72
2021/09/24 06:16:59;;;;;;;23.83;18.23;;;;;;;;;;6232453;28;20443;-72
2021/09/24 06:20:01;;;;;;;25.08;18.42;;;;;;;;;;6243527;28;20475;-72
2021/09/24 06:23:03;;;;;;;24.73;18.08;;;;;;;;;;6234777;28;20124;-72
2021/09/24 06:26:06;;;;;;;26.85;18.95;;;;;;;;;;6236478;28;20037;-72
2021/09/24 06:29:07;;;;;;;23.17;18.25;;;;;;;;;;6240860;28;20046;-72
2021/09/24 06:32:09;;;;;;;23.63;17.85;;;;;;;;;;6208123;28;20541;-71
2021/09/24 06:35:12;;;;;;;26.20;18.83;;;;;;;;;;6210147;28;20089;-72
2021/09/24 06:38:13;;;;;;;27.52;18.88;;;;;;;;;;6210376;28;20605;-72
2021/09/24 06:41:17;;;;;;;25.30;19.25;;;;;;;;;;6205812;28;20199;-72
2021/09/24 06:44:18;;;;;;;28.33;20.85;;;;;;;;;;6215718;28;20117;-72
2021/09/24 06:47:20;;;;;;;27.38;19.38;;;;;;;;;;6202724;28;20559;-72
2021/09/24 06:50:21;;;;;;;24.13;18.55;;;;;;;;;;6208060;28;20140;-71
2021/09/24 06:53:24;;;;;;;25.30;20.40;;;;;;;;;;6210463;28;20045;-71
2021/09/24 06:56:27;;;;;;;26.05;20.45;;;;;;;;;;6205987;28;20678;-71
2021/09/24 06:59:29;;;;;;;26.75;20.40;;;;;;;;;;6214250;28;20131;-72
2021/09/24 07:02:30;;;;;;;31.00;21.88;;;;;;;;;;6222179;28;20044;-72
2021/09/24 07:05:32;;;;;;;29.60;20.48;;;;;;;;;;6230058;28;20243;-72
2021/09/24 07:08:33;;;;;;;25.85;20.55;;;;;;;;;;6231295;28;20106;-71
2021/09/24 07:11:37;;;;;;;24.58;20.27;;;;;;;;;;6229745;28;20060;-71
2021/09/24 07:14:38;;;;;;;28.23;22.13;;;;;;;;;;6241795;28;20458;-71
2021/09/24 07:17:40;;;;;;;26.75;20.65;;;;;;;;;;6217928;28;20390;-71
2021/09/24 07:20:43;;;;;;;26.17;20.35;;;;;;;;;;6208497;28;20135;-72
2021/09/24 07:23:45;;;;;;;25.67;20.08;;;;;;;;;;6216623;28;20124;-72
2021/09/24 07:26:48;;;;;;;26.13;19.33;;;;;;;;;;6209021;28;20600;-73
2021/09/24 07:29:50;;;;;;;21.23;18.95;;;;;;;;;;6216458;28;20056;-72
2021/09/24 07:32:51;;;;;;;24.50;19.58;;;;;;;;;;6214622;28;20049;-72
2021/09/24 07:35:53;;;;;;;24.55;19.25;;;;;;;;;;6230538;28;20219;-72
2021/09/24 07:38:55;;;;;;;24.52;18.95;;;;;;;;;;6236803;28;20504;-72
2021/09/24 07:41:58;;;;;;;24.83;18.77;;;;;;;;;;6231295;28;20128;-74
2021/09/24 07:45:00;;;;;;;27.25;19.23;;;;;;;;;;6231433;28;20045;-73
2021/09/24 07:48:01;;;;;;;24.20;18.17;;;;;;;;;;6216159;28;20042;-72
2021/09/24 07:51:03;;;;;;;24.02;18.40;;;;;;;;;;6224620;28;20033;-73
2021/09/24 07:54:05;;;;;;;22.52;18.70;;;;;;;;;;6233528;28;20125;-72
2021/09/24 07:57:08;;;;;;;20.15;16.98;;;;;;;;;;6226131;28;20087;-72
2021/09/24 08:00:10;;;;;;;22.08;17.70;;;;;;;;;;6231826;28;20136;-73
2021/09/24 08:03:12;;;;;;;20.15;17.60;;;;;;;;;;6232109;28;20436;-72
2021/09/24 08:06:16;;;;;;;23.35;18.30;;;;;;;;;;6224573;28;20053;-72
2021/09/24 08:09:18;;;;;;;26.30;17.20;;;;;;;;;;6235838;28;20492;-73
2021/09/24 08:12:21;;;;;;;25.08;18.33;;;;;;;;;;6227552;28;20180;-72
2021/09/24 08:15:23;;;;;;;22.73;17.55;;;;;;;;;;6221777;28;20520;-73
2021/09/24 08:18:25;;;;;;;24.42;18.75;;;;;;;;;;6233792;28;20619;-73
2021/09/24 08:21:27;;;;;;;22.15;18.88;;;;;;;;;;6243895;28;20180;-73
2021/09/24 08:24:28;;;;;;;23.60;18.33;;;;;;;;;;6239643;28;20195;-72
2021/09/24 08:27:31;;;;;;;22.98;17.15;;;;;;;;;;6234469;28;20188;-73
2021/09/24 08:30:33;;;;;;;23.27;18.00;;;;;;;;;;6235444;28;20049;-73
2021/09/24 08:33:35;;;;;;;20.38;16.75;;;;;;;;;;6218372;28;20046;-72
2021/09/24 08:36:36;;;;;;;23.45;17.05;;;;;;;;;;6220109;28;20062;-72
2021/09/24 08:39:38;;;;;;;20.02;16.02;;;;;;;;;;6223720;28;20073;-72
2021/09/24 08:42:42;;;;;;;18.58;16.23;;;;;;;;;;6234459;28;20045;-72
2021/09/24 08:45:47;;;;;;;20.00;15.80;;;;;;;;;;6230239;28;20904;-73
2021/09/24 08:48:50;;;;;;;19.98;15.60;;;;;;;;;;6234847;28;20136;-73
2021/09/24 08:51:51;;;;;;;17.52;15.10;;;;;;;;;;6212556;28;20111;-72
2021/09/24 08:54:53;;;;;;;18.88;15.93;;;;;;;;;;6239938;28;20083;-72
2021/09/24 08:57:57;;;;;;;18.15;16.25;;;;;;;;;;6229621;28;20064;-72
2021/09/24 09:00:59;;;;;;;18.88;15.15;;;;;;;;;;6229099;28;20124;-72
2021/09/24 09:04:00;;;;;;;19.13;16.60;;;;;;;;;;6233281;28;20084;-72
2021/09/24 09:07:09;;;;;;;17.90;16.05;;;;;;;;;;6228293;28;20141;-72
2021/09/24 09:10:11;;;;;;;20.85;16.00;;;;;;;;;;6234308;28;20608;-72
2021/09/24 09:13:18;;;;;;;19.67;17.67;;;;;;;;;;6237122;28;20124;-72
2021/09/24 09:16:23;;;;;;;18.77;15.68;;;;;;;;;;6228746;28;20482;-72
2021/09/24 09:19:24;;;;;;;19.58;16.08;;;;;;;;;;6240890;28;20067;-72
2021/09/24 09:22:26;;;;;;;22.58;18.98;;;;;;;;;;6229255;28;20098;-73
2021/09/24 09:25:32;;;;;;;25.13;20.25;;;;;;;;;;6234348;28;20114;-73
2021/09/24 09:28:38;;;;;;;24.55;21.67;;;;;;;;;;6237805;28;20041;-72
2021/09/24 09:31:40;;;;;;;23.52;20.02;;;;;;;;;;6229735;28;20049;-72
2021/09/24 09:34:41;;;;;;;21.80;19.00;;;;;;;;;;6230521;28;20176;-72
2021/09/24 09:37:43;;;;;;;24.03;18.27;;;;;;;;;;6224711;28;20529;-72
2021/09/24 09:40:44;;;;;;;18.92;16.08;;;;;;;;;;6226782;28;21447;-73
2021/09/24 09:43:50;;;;;;;23.15;20.83;;;;;;;;;;6237471;28;20092;-72
2021/09/24 09:46:52;;;;;;;20.02;17.92;;;;;;;;;;6222262;28;20599;-71
2021/09/24 09:50:10;;;;;;;19.92;17.85;;;;;;;;;;6236748;28;20488;-72
2021/09/24 09:53:13;;;;;;;20.08;16.92;;;;;;;;;;6230342;28;20176;-73
2021/09/24 09:56:15;;;;;;;20.13;16.83;;;;;;;;;;6229783;28;20095;-73
2021/09/24 09:59:25;;;;;;;19.80;14.10;;;;;;;;;;6234827;28;20424;-73
2021/09/24 10:02:31;;;;;;;20.58;13.10;;;;;;;;;;6222864;28;20115;-73
2021/09/24 10:05:37;;;;;;;14.52;12.98;;;;;;;;;;6224705;28;20056;-77
2021/09/24 10:08:41;;;;;;;21.00;13.20;;;;;;;;;;6234798;28;20168;-74
2021/09/24 10:11:42;;;;;;;13.73;12.32;;;;;;;;;;6228007;28;20067;-70
2021/09/24 10:14:45;;;;;;;14.70;12.98;;;;;;;;;;6236515;28;20508;-71
2021/09/24 10:17:47;;;;;;;13.77;12.27;;;;;;;;;;6218528;28;20401;-72
2021/09/24 10:20:49;;;;;;;12.13;10.88;;;;;;;;;;6234800;28;20056;-74
2021/09/24 10:23:51;;;;;;;;;;;;;;;;;;6243711;28;20132;-74
2021/09/24 10:26:57;;;;;;;16.90;15.10;;;;;;;;;;6229002;28;20066;-75
2021/09/24 10:30:07;;;;;;;15.88;13.27;;;;;;;;;;6222002;28;20393;-74
2021/09/24 10:33:11;;;;;;;15.27;13.52;;;;;;;;;;6194196;28;20125;-72
2021/09/24 10:36:43;;;;;;;15.40;13.40;;;;;;;;;;6209271;28;20057;-73
2021/09/24 10:39:47;;;;;;;14.63;11.63;;;;;;;;;;6229761;28;20206;-70
2021/09/24 10:42:51;;;;;;;12.90;11.18;;;;;;;;;;6202354;28;20050;-70
2021/09/24 10:45:54;;;;;;;14.40;11.50;;;;;;;;;;6200982;28;20045;-70
2021/09/24 10:49:29;;;;;;;13.55;10.80;;;;;;;;;;6203545;28;20053;-70
2021/09/24 10:52:38;;;;;;;14.73;10.02;;;;;;;;;;6194087;28;20133;-71
2021/09/24 10:55:43;;;;;;;15.38;13.88;;;;;;;;;;6207498;28;20497;-69
2021/09/24 10:58:44;;;;;;;19.48;15.63;;;;;;;;;;6217098;28;20133;-69
2021/09/24 11:01:47;;;;;;;18.73;16.92;;;;;;;;;;6200529;28;20050;-70
2021/09/24 11:04:51;;;;;;;19.67;15.63;;;;;;;;;;6209000;28;20077;-71
2021/09/24 11:07:53;;;;;;;16.80;15.00;;;;;;;;;;6205282;28;20166;-74
2021/09/24 11:11:04;;;;;;;15.13;13.60;;;;;;;;;;6223471;28;20176;-75
2021/09/24 11:14:31;;;;;;;15.90;14.35;;;;;;;;;;6235451;28;20537;-73
2021/09/24 11:17:43;;;;;;;14.27;12.25;;;;;;;;;;6220095;28;20077;-74
2021/09/24 11:20:56;;;;;;;16.33;12.57;;;;;;;;;;6224239;28;20093;-71
2021/09/24 11:23:59;;;;;;;18.25;15.93;;;;;;;;;;6233241;28;20045;-72
2021/09/24 11:27:03;;;;;;;16.17;13.00;;;;;;;;;;6222066;28;20533;-72
2021/09/24 11:30:16;;;;;;;15.75;12.57;;;;;;;;;;6238247;28;20045;-74
2021/09/24 11:33:48;;;;;;;14.23;11.95;;;;;;;;;;6223460;28;20049;-74
2021/09/24 11:37:00;;;;;;;14.23;11.52;;;;;;;;;;6227745;28;20053;-73
2021/09/24 11:40:05;;;;;;;13.77;10.98;;;;;;;;;;6232989;28;20051;-73
2021/09/24 11:43:07;;;;;;;14.57;12.00;;;;;;;;;;6227866;28;20119;-73
2021/09/24 11:46:12;;;;;;;;;;;;;;;;;;6229935;28;20054;-74
2021/09/24 11:49:15;;;;;;;14.10;12.60;;;;;;;;;;6235523;28;19925;-74
2021/09/24 11:52:17;;;;;;;14.30;10.55;;;;;;;;;;6234155;28;20533;-74
2021/09/24 11:55:21;;;;;;;13.02;10.40;;;;;;;;;;6243777;28;20140;-74
2021/09/24 11:58:24;;;;;;;15.48;11.05;;;;;;;;;;6247762;28;20163;-74
2021/09/24 12:01:26;;;;;;;11.00;9.93;;;;;;;;;;6239009;28;20053;-74
2021/09/24 12:04:29;;;;;;;11.65;10.35;;;;;;;;;;6236094;28;20193;-74
2021/09/24 12:07:30;;;;;;;12.55;8.32;;;;;;;;;;6238711;28;20382;-74
2021/09/24 12:10:32;;;;;;;12.18;10.20;;;;;;;;;;6240906;28;20119;-74
2021/09/24 12:13:52;;;;;;;12.45;9.98;;;;;;;;;;6244654;28;20050;-73
2021/09/24 12:16:53;;;;;;;13.40;10.45;;;;;;;;;;6209663;28;20141;-73
2021/09/24 12:19:57;;;;;;;12.38;11.18;;;;;;;;;;6236305;28;20192;-72
2021/09/24 12:22:59;;;;;;;11.75;10.30;;;;;;;;;;6240831;28;20107;-72
2021/09/24 12:26:04;;;;;;;12.13;10.93;;;;;;;;;;6240441;28;20519;-72
2021/09/24 12:29:07;;;;;;;10.60;7.70;;;;;;;;;;6239338;28;20128;-72
2021/09/24 12:32:09;;;;;;;9.40;8.38;;;;;;;;;;6234820;28;20037;-72
2021/09/24 12:35:13;;;;;;;12.32;8.75;;;;;;;;;;6243482;28;20465;-72
2021/09/24 12:38:28;;;;;;;13.50;9.40;;;;;;;;;;6242186;28;20068;-72
2021/09/24 12:41:38;;;;;;;10.80;9.70;;;;;;;;;;6239627;28;20127;-72
2021/09/24 12:44:51;;;;;;;13.50;10.98;;;;;;;;;;6248531;28;20158;-72
2021/09/24 12:47:53;;;;;;;12.40;11.20;;;;;;;;;;6235531;28;20680;-72
2021/09/24 12:50:56;;;;;;;12.68;11.40;;;;;;;;;;6239046;28;20053;-72
2021/09/24 12:53:58;;;;;;;11.23;8.70;;;;;;;;;;6245672;28;20041;-72
2021/09/24 12:56:59;;;;;;;15.68;12.98;;;;;;;;;;6235617;28;20054;-72
2021/09/24 13:00:05;;;;;;;13.53;12.03;;;;;;;;;;6250878;28;20041;-72
2021/09/24 13:03:07;;;;;;;11.00;9.82;;;;;;;;;;6223329;28;20488;-72
2021/09/24 13:06:12;;;;;;;13.07;10.57;;;;;;;;;;6205639;28;20050;-73
2021/09/24 13:09:14;;;;;;;11.35;8.40;;;;;;;;;;6235800;28;20049;-73
2021/09/24 13:12:16;;;;;;;22.02;10.55;;;;;;;;;;6233591;28;20050;-73
2021/09/24 13:15:19;;;;;;;11.73;10.55;;;;;;;;;;6216225;28;20383;-74
2021/09/24 13:18:21;;;;;;;10.77;8.82;;;;;;;;;;6230363;28;20490;-74
2021/09/24 13:21:26;;;;;;;13.77;10.20;;;;;;;;;;6234560;28;20068;-73
2021/09/24 13:24:28;;;;;;;13.00;10.80;;;;;;;;;;6242019;28;20045;-73
2021/09/24 13:27:29;;;;;;;13.00;9.85;;;;;;;;;;6231976;28;20132;-75
2021/09/24 13:30:31;;;;;;;11.85;8.00;;;;;;;;;;6235104;28;20136;-72
2021/09/24 13:33:32;;;;;;;8.40;6.70;;;;;;;;;;6233681;28;20145;-72
2021/09/24 13:36:35;;;;;;;8.75;6.65;;;;;;;;;;6231571;28;20144;-74
2021/09/24 13:39:37;;;;;;;9.85;7.30;;;;;;;;;;6237745;28;20612;-74
2021/09/24 13:42:39;;;;;;;8.93;8.02;;;;;;;;;;6235102;28;20085;-73
2021/09/24 13:45:41;;;;;;;8.57;7.05;;;;;;;;;;6228389;28;20772;-74
2021/09/24 13:48:43;;;;;;;9.70;8.18;;;;;;;;;;6229337;28;20050;-74
2021/09/24 13:51:45;;;;;;;9.70;8.55;;;;;;;;;;6225965;28;20062;-72
2021/09/24 13:54:47;;;;;;;10.23;8.80;;;;;;;;;;6230990;28;20746;-72
2021/09/24 13:57:49;;;;;;;19.15;9.30;;;;;;;;;;6231415;28;20045;-72
2021/09/24 14:00:50;;;;;;;7.40;6.70;;;;;;;;;;6224965;28;20445;-72
2021/09/24 14:03:52;;;;;;;7.82;7.07;;;;;;;;;;6228009;28;20453;-72
2021/09/24 14:06:55;;;;;;;9.83;8.83;;;;;;;;;;6227393;28;20042;-74
2021/09/24 14:09:56;;;;;;;8.75;7.05;;;;;;;;;;6230605;28;20563;-77
2021/09/24 14:12:58;;;;;;;13.60;8.60;;;;;;;;;;6227136;28;20102;-74
2021/09/24 14:16:00;;;;;;;6.18;5.57;;;;;;;;;;6226422;28;20172;-74
2021/09/24 14:19:02;;;;;;;9.15;7.72;;;;;;;;;;6227567;28;20128;-75
2021/09/24 14:22:06;;;;;;;10.27;7.70;;;;;;;;;;6228658;28;20044;-73
2021/09/24 14:25:09;;;;;;;9.13;8.23;;;;;;;;;;6234790;28;20540;-73
2021/09/24 14:28:11;;;;;;;7.90;6.88;;;;;;;;;;6235149;28;20132;-71
2021/09/24 14:31:13;;;;;;;10.82;7.38;;;;;;;;;;6225555;28;20095;-73
2021/09/24 14:34:17;;;;;;;9.05;7.32;;;;;;;;;;6229034;28;20056;-73
2021/09/24 14:37:21;;;;;;;9.48;7.38;;;;;;;;;;6224017;28;20619;-72
2021/09/24 14:40:23;;;;;;;9.30;8.05;;;;;;;;;;6225158;28;20050;-72
2021/09/24 14:43:24;;;;;;;8.55;4.97;;;;;;;;;;6235979;28;20524;-70
2021/09/24 14:46:27;;;;;;;9.30;6.50;;;;;;;;;;6232323;28;20212;-72
2021/09/24 14:49:28;;;;;;;11.73;7.03;;;;;;;;;;6235538;28;20485;-72
2021/09/24 14:52:31;;;;;;;9.00;5.47;;;;;;;;;;6211493;28;20076;-71
2021/09/24 14:55:33;;;;;;;6.05;5.20;;;;;;;;;;6198783;28;20137;-72
2021/09/24 14:58:34;;;;;;;8.43;5.28;;;;;;;;;;6228693;28;20556;-72
2021/09/24 15:01:36;;;;;;;9.13;6.03;;;;;;;;;;6223814;28;20041;-70
2021/09/24 15:04:38;;;;;;;10.20;7.15;;;;;;;;;;6232512;28;20050;-70
2021/09/24 15:07:41;;;;;;;7.25;5.03;;;;;;;;;;6229357;28;20533;-72
2021/09/24 15:10:42;;;;;;;7.70;5.80;;;;;;;;;;6229543;28;20037;-71
2021/09/24 15:13:44;;;;;;;8.00;6.15;;;;;;;;;;6235592;28;20065;-72
2021/09/24 15:16:46;;;;;;;8.40;6.20;;;;;;;;;;6222123;28;20053;-72
2021/09/24 15:19:47;;;;;;;10.20;6.95;;;;;;;;;;6232456;28;20041;-72
2021/09/24 15:22:50;;;;;;;6.60;5.63;;;;;;;;;;6224279;28;20488;-72
2021/09/24 15:25:52;;;;;;;7.22;6.25;;;;;;;;;;6229250;28;20057;-71
2021/09/24 15:28:53;;;;;;;7.35;6.63;;;;;;;;;;6232604;28;20075;-71
2021/09/24 15:31:55;;;;;;;9.32;6.32;;;;;;;;;;6225590;28;20057;-71
2021/09/24 15:34:57;;;;;;;7.60;5.57;;;;;;;;;;6229662;28;20042;-70
2021/09/24 15:38:00;;;;;;;8.95;7.18;;;;;;;;;;6230158;28;20567;-73
2021/09/24 15:41:03;;;;;;;8.05;6.57;;;;;;;;;;6226390;28;20353;-71
2021/09/24 15:44:05;;;;;;;12.70;6.80;;;;;;;;;;6237245;28;20044;-72
2021/09/24 15:47:07;;;;;;;8.23;6.75;;;;;;;;;;6224344;28;20060;-71
2021/09/24 15:50:10;;;;;;;7.82;5.63;;;;;;;;;;6226962;28;20050;-72
2021/09/24 15:53:13;;;;;;;6.70;6.00;;;;;;;;;;6229194;28;20158;-71
2021/09/24 15:56:16;;;;;;;6.65;5.95;;;;;;;;;;6213085;28;20180;-72
2021/09/24 15:59:19;;;;;;;12.68;5.60;;;;;;;;;;6213935;28;20045;-72
2021/09/24 16:02:23;;;;;;;8.45;5.72;;;;;;;;;;6219910;28;20053;-72
2021/09/24 16:05:24;;;;;;;11.15;6.05;;;;;;;;;;6228623;28;20038;-72
2021/09/24 16:08:27;;;;;;;9.55;5.85;;;;;;;;;;6237493;28;20114;-72
2021/09/24 16:11:29;;;;;;;8.45;5.82;;;;;;;;;;6229361;28;20098;-72
2021/09/24 16:14:31;;;;;;;8.90;5.00;;;;;;;;;;6237259;28;20061;-72
2021/09/24 16:17:32;;;;;;;9.13;6.35;;;;;;;;;;6200357;28;20160;-72
2021/09/24 16:20:35;;;;;;;9.50;6.13;;;;;;;;;;6219347;28;20570;-72
2021/09/24 16:23:38;;;;;;;9.88;6.95;;;;;;;;;;6235142;28;20084;-72
2021/09/24 16:26:40;;;;;;;7.68;6.85;;;;;;;;;;6226871;28;20207;-72
2021/09/24 16:29:42;;;;;;;6.93;6.22;;;;;;;;;;6238066;28;20045;-71
2021/09/24 16:32:44;;;;;;;6.78;6.05;;;;;;;;;;6221131;28;20045;-72
2021/09/24 16:35:46;;;;;;;9.10;6.55;;;;;;;;;;6212762;28;20041;-71
2021/09/24 16:38:49;;;;;;;7.50;5.85;;;;;;;;;;6222698;28;20123;-73
2021/09/24 16:41:51;;;;;;;9.75;5.55;;;;;;;;;;6209921;28;20050;-72
2021/09/24 16:44:53;;;;;;;8.77;5.77;;;;;;;;;;6224898;28;20102;-73
2021/09/24 16:47:54;;;;;;;14.90;6.60;;;;;;;;;;6225487;28;20436;-71
2021/09/24 16:50:56;;;;;;;14.20;7.13;;;;;;;;;;6233284;28;20102;-71
2021/09/24 16:53:59;;;;;;;16.27;6.47;;;;;;;;;;6242247;28;20045;-73
2021/09/24 16:57:01;;;;;;;15.75;7.50;;;;;;;;;;6232897;28;20057;-73
2021/09/24 17:00:04;;;;;;;8.98;6.65;;;;;;;;;;6238725;28;20473;-75
2021/09/24 17:03:07;;;;;;;12.07;6.90;;;;;;;;;;6226148;28;20137;-73
2021/09/24 17:06:08;;;;;;;23.00;8.02;;;;;;;;;;6219615;28;20267;-72
2021/09/24 17:09:11;;;;;;;23.00;8.13;;;;;;;;;;6244920;28;20119;-72
2021/09/24 17:12:13;;;;;;;33.50;9.80;;;;;;;;;;6223020;28;20066;-72
2021/09/24 17:15:16;;;;;;;24.30;10.37;;;;;;;;;;6216017;28;20046;-73
2021/09/24 17:18:17;;;;;;;20.27;9.40;;;;;;;;;;6232818;28;20362;-72
2021/09/24 17:21:19;;;;;;;14.77;7.93;;;;;;;;;;6227942;28;20437;-72
2021/09/24 17:24:22;;;;;;;19.33;8.35;;;;;;;;;;6211891;28;20125;-72
2021/09/24 17:27:23;;;;;;;;;;;;;;;;;;6214253;28;20140;-72
2021/09/24 17:30:26;;;;;;;14.15;8.73;;;;;;;;;;6234281;28;19937;-72
2021/09/24 17:33:27;;;;;;;15.50;7.60;;;;;;;;;;6227599;28;20452;-72
2021/09/24 17:36:29;;;;;;;13.75;8.38;;;;;;;;;;6234864;28;20068;-72
2021/09/24 17:39:32;;;;;;;12.07;8.07;;;;;;;;;;6234608;28;20140;-72
2021/09/24 17:42:33;;;;;;;;;;;;;;;;;;6210699;28;20464;-71
2021/09/24 17:45:36;;;;;;;14.57;8.73;;;;;;;;;;6198074;28;20674;-72
2021/09/24 17:48:37;;;;;;;18.40;8.68;;;;;;;;;;6217620;28;20073;-71
2021/09/24 17:51:39;;;;;;;16.88;8.70;;;;;;;;;;6208518;28;20380;-71